createdAt,value
2017-02-04T00:00:06.539Z,995.85
2017-02-04T00:01:17.983Z,995.83
2017-02-04T00:02:29.380Z,995.8
2017-02-04T00:03:40.784Z,995.8
2017-02-04T00:04:52.182Z,995.74
2017-02-04T00:06:03.789Z,995.64
2017-02-04T00:07:15.448Z,995.67
2017-02-04T00:08:26.844Z,995.58
2017-02-04T00:09:38.244Z,995.61
2017-02-04T00:10:49.844Z,995.6
2017-02-04T00:12:01.249Z,995.55
2017-02-04T00:13:12.905Z,995.49
2017-02-04T00:14:24.315Z,995.46
2017-02-04T00:15:35.720Z,995.46
2017-02-04T00:16:47.116Z,995.41
2017-02-04T00:17:58.724Z,995.34
2017-02-04T00:19:10.175Z,995.37
2017-02-04T00:20:21.580Z,995.38
2017-02-04T00:21:33.189Z,995.38
2017-02-04T00:22:44.604Z,995.41
2017-02-04T00:23:56.049Z,995.42
2017-02-04T00:25:07.492Z,995.36
2017-02-04T00:26:19.099Z,995.36
2017-02-04T00:27:30.508Z,995.36
2017-02-04T00:28:41.912Z,995.39
2017-02-04T00:29:53.308Z,995.37
2017-02-04T00:31:05.163Z,995.41
2017-02-04T00:32:16.570Z,995.4
2017-02-04T00:33:27.982Z,995.35
2017-02-04T00:34:39.603Z,995.38
2017-02-04T00:35:51.002Z,995.35
2017-02-04T00:37:02.463Z,995.38
2017-02-04T00:38:13.862Z,995.39
2017-02-04T00:39:25.261Z,995.38
2017-02-04T00:40:36.872Z,995.41
2017-02-04T00:41:48.271Z,995.36
2017-02-04T00:42:59.727Z,995.38
2017-02-04T00:44:11.338Z,995.34
2017-02-04T00:45:22.741Z,995.36
2017-02-04T00:46:34.142Z,995.32
2017-02-04T00:47:45.549Z,995.32
2017-02-04T00:48:57.197Z,995.32
2017-02-04T00:50:08.601Z,995.31
2017-02-04T00:51:20.004Z,995.29
2017-02-04T00:52:31.608Z,995.31
2017-02-04T00:53:43.003Z,995.29
2017-02-04T00:54:54.463Z,995.28
2017-02-04T00:56:05.866Z,995.21
2017-02-04T00:57:17.473Z,995.2
2017-02-04T00:58:28.871Z,995.2
2017-02-04T00:59:40.270Z,995.2
2017-02-04T01:00:51.727Z,995.14
2017-02-04T01:02:03.137Z,995.14
2017-02-04T01:03:14.533Z,995.12
2017-02-04T01:04:26.141Z,995.09
2017-02-04T01:05:37.532Z,995.09
2017-02-04T01:06:48.985Z,995.09
2017-02-04T01:08:00.390Z,995.09
2017-02-04T01:09:11.797Z,995.07
2017-02-04T01:10:23.201Z,995.13
2017-02-04T01:11:34.643Z,995.1
2017-02-04T01:12:46.300Z,995.13
2017-02-04T01:13:57.742Z,995.08
2017-02-04T01:15:09.152Z,995.09
2017-02-04T01:16:20.560Z,995.11
2017-02-04T01:17:31.964Z,995.11
2017-02-04T01:18:43.423Z,995.13
2017-02-04T01:19:54.825Z,995.11
2017-02-04T01:21:06.221Z,995.12
2017-02-04T01:22:17.629Z,995.1
2017-02-04T01:23:29.027Z,995.18
2017-02-04T01:24:40.485Z,995.19
2017-02-04T01:25:51.898Z,995.2
2017-02-04T01:27:03.298Z,995.16
2017-02-04T01:28:14.704Z,995.13
2017-02-04T01:29:26.111Z,995.17
2017-02-04T01:30:37.569Z,995.18
2017-02-04T01:31:48.976Z,995.18
2017-02-04T01:33:00.587Z,995.17
2017-02-04T01:34:11.992Z,995.19
2017-02-04T01:35:23.398Z,995.23
2017-02-04T01:36:34.854Z,995.2
2017-02-04T01:37:46.453Z,995.22
2017-02-04T01:38:57.858Z,995.24
2017-02-04T01:40:09.267Z,995.24
2017-02-04T01:41:20.674Z,995.22
2017-02-04T01:42:32.128Z,995.22
2017-02-04T01:43:43.535Z,995.25
2017-02-04T01:44:54.943Z,995.3
2017-02-04T01:46:06.347Z,995.3
2017-02-04T01:47:17.752Z,995.27
2017-02-04T01:48:29.210Z,995.29
2017-02-04T01:49:40.614Z,995.24
2017-02-04T01:50:52.018Z,995.22
2017-02-04T01:52:03.820Z,995.26
2017-02-04T01:53:15.225Z,995.26
2017-02-04T01:54:26.691Z,995.23
2017-02-04T01:55:38.305Z,995.17
2017-02-04T01:56:49.904Z,995.14
2017-02-04T01:58:01.311Z,995.15
2017-02-04T01:59:12.716Z,995.17
2017-02-04T02:00:24.184Z,995.16
2017-02-04T02:01:35.587Z,995.23
2017-02-04T02:02:46.988Z,995.18
2017-02-04T02:03:58.393Z,995.22
2017-02-04T02:05:10.006Z,995.21
2017-02-04T02:06:21.471Z,995.21
2017-02-04T02:07:32.881Z,995.19
2017-02-04T02:08:44.482Z,995.26
2017-02-04T02:09:55.888Z,995.26
2017-02-04T02:11:07.291Z,995.27
2017-02-04T02:12:18.747Z,995.24
2017-02-04T02:13:30.157Z,995.24
2017-02-04T02:14:41.565Z,995.28
2017-02-04T02:15:53.169Z,995.25
2017-02-04T02:17:04.574Z,995.23
2017-02-04T02:18:16.228Z,995.19
2017-02-04T02:19:27.622Z,995.2
2017-02-04T02:20:39.026Z,995.17
2017-02-04T02:21:50.423Z,995.21
2017-02-04T02:23:01.825Z,995.18
2017-02-04T02:24:13.283Z,995.21
2017-02-04T02:25:24.687Z,995.2
2017-02-04T02:26:36.093Z,995.19
2017-02-04T02:27:47.494Z,995.17
2017-02-04T02:28:58.929Z,995.18
2017-02-04T02:30:10.383Z,995.21
2017-02-04T02:31:21.784Z,995.23
2017-02-04T02:32:33.196Z,995.25
2017-02-04T02:33:44.598Z,995.28
2017-02-04T02:34:56.007Z,995.33
2017-02-04T02:36:07.474Z,995.28
2017-02-04T02:37:18.873Z,995.32
2017-02-04T02:38:30.280Z,995.31
2017-02-04T02:39:41.683Z,995.33
2017-02-04T02:40:53.293Z,995.31
2017-02-04T02:42:04.749Z,995.3
2017-02-04T02:43:16.145Z,995.24
2017-02-04T02:44:27.549Z,995.27
2017-02-04T02:45:38.955Z,995.26
2017-02-04T02:46:50.358Z,995.27
2017-02-04T02:48:01.847Z,995.3
2017-02-04T02:49:13.246Z,995.32
2017-02-04T02:50:24.853Z,995.32
2017-02-04T02:51:36.256Z,995.39
2017-02-04T02:52:47.659Z,995.39
2017-02-04T02:53:59.109Z,995.45
2017-02-04T02:55:10.511Z,995.47
2017-02-04T02:56:21.920Z,995.44
2017-02-04T02:57:33.531Z,995.48
2017-02-04T02:58:44.942Z,995.48
2017-02-04T02:59:56.395Z,995.49
2017-02-04T03:01:07.794Z,995.49
2017-02-04T03:02:19.202Z,995.48
2017-02-04T03:03:30.608Z,995.49
2017-02-04T03:04:42.005Z,995.51
2017-02-04T03:05:53.461Z,995.48
2017-02-04T03:07:04.870Z,995.49
2017-02-04T03:08:16.481Z,995.51
2017-02-04T03:09:27.891Z,995.5
2017-02-04T03:10:39.292Z,995.53
2017-02-04T03:11:50.747Z,995.53
2017-02-04T03:13:02.149Z,995.55
2017-02-04T03:14:13.563Z,995.52
2017-02-04T03:15:24.981Z,995.57
2017-02-04T03:16:36.382Z,995.58
2017-02-04T03:17:47.841Z,995.63
2017-02-04T03:18:59.244Z,995.59
2017-02-04T03:20:10.643Z,995.59
2017-02-04T03:21:22.044Z,995.63
2017-02-04T03:22:33.447Z,995.6
2017-02-04T03:23:45.100Z,995.56
2017-02-04T03:24:56.702Z,995.61
2017-02-04T03:26:08.108Z,995.62
2017-02-04T03:27:19.711Z,995.68
2017-02-04T03:28:31.117Z,995.62
2017-02-04T03:29:42.583Z,995.61
2017-02-04T03:30:53.991Z,995.64
2017-02-04T03:32:05.395Z,995.69
2017-02-04T03:33:16.798Z,995.68
2017-02-04T03:34:28.200Z,995.69
2017-02-04T03:35:39.658Z,995.7
2017-02-04T03:36:51.058Z,995.67
2017-02-04T03:38:02.466Z,995.66
2017-02-04T03:39:14.069Z,995.67
2017-02-04T03:40:25.670Z,995.71
2017-02-04T03:41:37.128Z,995.69
2017-02-04T03:42:48.526Z,995.67
2017-02-04T03:43:59.929Z,995.74
2017-02-04T03:45:11.343Z,995.7
2017-02-04T03:46:22.948Z,995.75
2017-02-04T03:47:34.406Z,995.72
2017-02-04T03:48:45.811Z,995.72
2017-02-04T03:49:57.211Z,995.74
2017-02-04T03:51:08.816Z,995.8
2017-02-04T03:52:20.425Z,995.77
2017-02-04T03:53:31.876Z,995.78
2017-02-04T03:54:43.280Z,995.76
2017-02-04T03:55:54.678Z,995.78
2017-02-04T03:57:06.082Z,995.75
2017-02-04T03:58:17.483Z,995.79
2017-02-04T03:59:28.943Z,995.81
2017-02-04T04:00:40.347Z,995.85
2017-02-04T04:01:51.956Z,995.86
2017-02-04T04:03:03.360Z,995.89
2017-02-04T04:04:14.765Z,995.85
2017-02-04T04:05:26.211Z,995.92
2017-02-04T04:06:37.607Z,995.97
2017-02-04T04:07:49.014Z,995.99
2017-02-04T04:09:00.415Z,996.01
2017-02-04T04:10:11.824Z,996.02
2017-02-04T04:11:23.284Z,996.02
2017-02-04T04:12:34.887Z,996.04
2017-02-04T04:13:46.287Z,996
2017-02-04T04:14:57.894Z,996.03
2017-02-04T04:16:09.497Z,996.02
2017-02-04T04:17:20.960Z,995.99
2017-02-04T04:18:32.367Z,995.98
2017-02-04T04:19:43.767Z,995.99
2017-02-04T04:20:55.175Z,995.98
2017-02-04T04:22:06.583Z,996.04
2017-02-04T04:23:18.048Z,995.97
2017-02-04T04:24:29.652Z,996.02
2017-02-04T04:25:41.056Z,996.01
2017-02-04T04:26:52.463Z,996.04
2017-02-04T04:28:04.068Z,996.07
2017-02-04T04:29:15.523Z,996
2017-02-04T04:30:26.935Z,996.12
2017-02-04T04:31:38.545Z,996.06
2017-02-04T04:32:50.149Z,996.04
2017-02-04T04:34:01.545Z,996.07
2017-02-04T04:35:12.996Z,996.06
2017-02-04T04:36:24.394Z,996.09
2017-02-04T04:37:35.793Z,996.2
2017-02-04T04:38:47.200Z,996.17
2017-02-04T04:39:58.607Z,996.26
2017-02-04T04:41:10.056Z,996.28
2017-02-04T04:42:21.465Z,996.34
2017-02-04T04:43:32.866Z,996.34
2017-02-04T04:44:44.269Z,996.37
2017-02-04T04:45:55.672Z,996.35
2017-02-04T04:47:07.127Z,996.35
2017-02-04T04:48:18.530Z,996.36
2017-02-04T04:49:29.933Z,996.37
2017-02-04T04:50:41.338Z,996.39
2017-02-04T04:51:52.742Z,996.39
2017-02-04T04:53:04.185Z,996.42
2017-02-04T04:54:15.790Z,996.43
2017-02-04T04:55:27.384Z,996.44
2017-02-04T04:56:38.788Z,996.42
2017-02-04T04:57:50.191Z,996.45
2017-02-04T04:59:01.833Z,996.47
2017-02-04T05:00:13.228Z,996.5
2017-02-04T05:01:24.636Z,996.52
2017-02-04T05:02:36.046Z,996.49
2017-02-04T05:03:47.464Z,996.53
2017-02-04T05:04:59.120Z,996.49
2017-02-04T05:06:10.723Z,996.49
2017-02-04T05:07:22.124Z,996.48
2017-02-04T05:08:33.729Z,996.47
2017-02-04T05:09:45.331Z,996.49
2017-02-04T05:10:56.795Z,996.49
2017-02-04T05:12:08.201Z,996.53
2017-02-04T05:13:19.805Z,996.51
2017-02-04T05:14:31.208Z,996.51
2017-02-04T05:15:42.609Z,996.57
2017-02-04T05:16:54.062Z,996.54
2017-02-04T05:18:05.464Z,996.57
2017-02-04T05:19:17.273Z,996.6
2017-02-04T05:20:28.755Z,996.57
2017-02-04T05:21:40.158Z,996.57
2017-02-04T05:22:51.808Z,996.57
2017-02-04T05:24:03.215Z,996.57
2017-02-04T05:25:14.618Z,996.61
2017-02-04T05:26:26.016Z,996.63
2017-02-04T05:27:37.414Z,996.65
2017-02-04T05:28:48.869Z,996.66
2017-02-04T05:30:00.275Z,996.7
2017-02-04T05:31:11.872Z,996.74
2017-02-04T05:32:23.270Z,996.72
2017-02-04T05:33:34.919Z,996.76
2017-02-04T05:34:46.412Z,996.8
2017-02-04T05:35:58.017Z,996.87
2017-02-04T05:37:09.424Z,996.9
2017-02-04T05:38:20.822Z,996.95
2017-02-04T05:39:32.228Z,996.98
2017-02-04T05:40:43.677Z,996.96
2017-02-04T05:41:55.077Z,997.04
2017-02-04T05:43:06.477Z,997.02
2017-02-04T05:44:17.878Z,997.06
2017-02-04T05:45:29.277Z,997.09
2017-02-04T05:46:40.935Z,997.12
2017-02-04T05:47:52.339Z,997.12
2017-02-04T05:49:03.954Z,997.16
2017-02-04T05:50:15.384Z,997.16
2017-02-04T05:51:26.781Z,997.17
2017-02-04T05:52:38.233Z,997.2
2017-02-04T05:53:49.637Z,997.2
2017-02-04T05:55:01.037Z,997.19
2017-02-04T05:56:12.446Z,997.17
2017-02-04T05:57:23.852Z,997.23
2017-02-04T05:58:35.304Z,997.22
2017-02-04T05:59:46.712Z,997.27
2017-02-04T06:00:58.133Z,997.28
2017-02-04T06:02:09.533Z,997.32
2017-02-04T06:03:21.336Z,997.31
2017-02-04T06:04:32.796Z,997.36
2017-02-04T06:05:44.199Z,997.36
2017-02-04T06:06:55.606Z,997.38
2017-02-04T06:08:07.013Z,997.4
2017-02-04T06:09:18.428Z,997.37
2017-02-04T06:10:29.881Z,997.36
2017-02-04T06:11:41.286Z,997.33
2017-02-04T06:12:52.686Z,997.3
2017-02-04T06:14:04.299Z,997.32
2017-02-04T06:15:15.712Z,997.35
2017-02-04T06:16:27.171Z,997.34
2017-02-04T06:17:38.574Z,997.3
2017-02-04T06:18:49.973Z,997.36
2017-02-04T06:20:01.382Z,997.41
2017-02-04T06:21:12.783Z,997.43
2017-02-04T06:22:24.237Z,997.44
2017-02-04T06:23:35.646Z,997.42
2017-02-04T06:24:47.051Z,997.42
2017-02-04T06:25:58.452Z,997.42
2017-02-04T06:27:09.854Z,997.4
2017-02-04T06:28:21.304Z,997.41
2017-02-04T06:29:32.707Z,997.41
2017-02-04T06:30:44.106Z,997.39
2017-02-04T06:31:55.505Z,997.4
2017-02-04T06:33:06.910Z,997.37
2017-02-04T06:34:18.364Z,997.41
2017-02-04T06:35:29.769Z,997.4
2017-02-04T06:36:41.181Z,997.43
2017-02-04T06:37:52.591Z,997.36
2017-02-04T06:39:03.992Z,997.36
2017-02-04T06:40:15.656Z,997.36
2017-02-04T06:41:27.059Z,997.35
2017-02-04T06:42:38.450Z,997.4
2017-02-04T06:43:49.850Z,997.4
2017-02-04T06:45:01.252Z,997.37
2017-02-04T06:46:12.706Z,997.33
2017-02-04T06:47:24.111Z,997.38
2017-02-04T06:48:35.515Z,997.4
2017-02-04T06:49:46.910Z,997.41
2017-02-04T06:50:58.319Z,997.41
2017-02-04T06:52:09.767Z,997.34
2017-02-04T06:53:21.170Z,997.39
2017-02-04T06:54:32.578Z,997.4
2017-02-04T06:55:44.179Z,997.38
2017-02-04T06:56:55.581Z,997.38
2017-02-04T06:58:07.034Z,997.34
2017-02-04T06:59:18.641Z,997.35
2017-02-04T07:00:30.042Z,997.35
2017-02-04T07:01:41.447Z,997.39
2017-02-04T07:02:52.849Z,997.35
2017-02-04T07:04:04.303Z,997.32
2017-02-04T07:05:15.711Z,997.3
2017-02-04T07:06:27.150Z,997.29
2017-02-04T07:07:38.748Z,997.26
2017-02-04T07:08:50.144Z,997.22
2017-02-04T07:10:01.803Z,997.26
2017-02-04T07:11:13.211Z,997.26
2017-02-04T07:12:24.617Z,997.29
2017-02-04T07:13:36.028Z,997.32
2017-02-04T07:14:47.643Z,997.28
2017-02-04T07:15:59.095Z,997.31
2017-02-04T07:17:10.507Z,997.31
2017-02-04T07:18:21.911Z,997.31
2017-02-04T07:19:33.506Z,997.29
2017-02-04T07:20:44.916Z,997.37
2017-02-04T07:21:56.576Z,997.36
2017-02-04T07:23:07.972Z,997.37
2017-02-04T07:24:19.382Z,997.42
2017-02-04T07:25:30.776Z,997.41
2017-02-04T07:26:42.185Z,997.43
2017-02-04T07:27:53.645Z,997.44
2017-02-04T07:29:05.248Z,997.49
2017-02-04T07:30:16.648Z,997.52
2017-02-04T07:31:28.050Z,997.5
2017-02-04T07:32:39.653Z,997.51
2017-02-04T07:33:51.110Z,997.51
2017-02-04T07:35:02.514Z,997.51
2017-02-04T07:36:13.911Z,997.48
2017-02-04T07:37:25.519Z,997.5
2017-02-04T07:38:36.923Z,997.51
2017-02-04T07:39:48.586Z,997.54
2017-02-04T07:40:59.990Z,997.59
2017-02-04T07:42:11.399Z,997.61
2017-02-04T07:43:22.809Z,997.65
2017-02-04T07:44:34.214Z,997.56
2017-02-04T07:45:45.668Z,997.58
2017-02-04T07:46:57.072Z,997.57
2017-02-04T07:48:08.479Z,997.6
2017-02-04T07:49:19.902Z,997.63
2017-02-04T07:50:31.303Z,997.65
2017-02-04T07:51:42.757Z,997.62
2017-02-04T07:52:54.161Z,997.64
2017-02-04T07:54:05.562Z,997.64
2017-02-04T07:55:17.169Z,997.67
2017-02-04T07:56:28.582Z,997.62
2017-02-04T07:57:40.052Z,997.59
2017-02-04T07:58:51.459Z,997.61
2017-02-04T08:00:02.869Z,997.59
2017-02-04T08:01:14.276Z,997.58
2017-02-04T08:02:26.079Z,997.56
2017-02-04T08:03:37.531Z,997.6
2017-02-04T08:04:48.934Z,997.59
2017-02-04T08:06:00.336Z,997.63
2017-02-04T08:07:11.756Z,997.56
2017-02-04T08:08:23.566Z,997.6
2017-02-04T08:09:35.020Z,997.57
2017-02-04T08:10:46.422Z,997.55
2017-02-04T08:11:57.831Z,997.54
2017-02-04T08:13:09.234Z,997.54
2017-02-04T08:14:20.643Z,997.57
2017-02-04T08:15:32.292Z,997.55
2017-02-04T08:16:43.698Z,997.6
2017-02-04T08:17:55.101Z,997.62
2017-02-04T08:19:06.507Z,997.67
2017-02-04T08:20:17.911Z,997.63
2017-02-04T08:21:29.571Z,997.66
2017-02-04T08:22:40.969Z,997.65
2017-02-04T08:23:52.375Z,997.64
2017-02-04T08:25:03.788Z,997.64
2017-02-04T08:26:15.212Z,997.57
2017-02-04T08:27:26.871Z,997.53
2017-02-04T08:28:38.322Z,997.52
2017-02-04T08:29:49.733Z,997.52
2017-02-04T08:31:01.134Z,997.47
2017-02-04T08:32:12.751Z,997.46
2017-02-04T08:33:24.206Z,997.45
2017-02-04T08:34:35.613Z,997.47
2017-02-04T08:35:47.027Z,997.49
2017-02-04T08:36:58.445Z,997.48
2017-02-04T08:38:09.857Z,997.5
2017-02-04T08:39:21.315Z,997.52
2017-02-04T08:40:32.920Z,997.48
2017-02-04T08:41:44.333Z,997.47
2017-02-04T08:42:55.942Z,997.45
2017-02-04T08:44:07.358Z,997.48
2017-02-04T08:45:18.812Z,997.43
2017-02-04T08:46:30.224Z,997.44
2017-02-04T08:47:41.632Z,997.46
2017-02-04T08:48:53.043Z,997.42
2017-02-04T08:50:04.648Z,997.45
2017-02-04T08:51:16.310Z,997.53
2017-02-04T08:52:27.928Z,997.52
2017-02-04T08:53:39.354Z,997.58
2017-02-04T08:54:50.768Z,997.59
2017-02-04T08:56:02.185Z,997.61
2017-02-04T08:57:13.648Z,997.54
2017-02-04T08:58:25.060Z,997.48
2017-02-04T08:59:36.474Z,997.47
2017-02-04T09:00:47.886Z,997.46
2017-02-04T09:01:59.303Z,997.41
2017-02-04T09:03:10.972Z,997.42
2017-02-04T09:04:22.387Z,997.4
2017-02-04T09:05:33.800Z,997.41
2017-02-04T09:06:45.207Z,997.33
2017-02-04T09:07:56.622Z,997.34
2017-02-04T09:09:08.095Z,997.37
2017-02-04T09:10:19.515Z,997.33
2017-02-04T09:11:30.931Z,997.3
2017-02-04T09:12:42.347Z,997.24
2017-02-04T09:13:53.760Z,997.18
2017-02-04T09:15:05.420Z,997.17
2017-02-04T09:16:16.843Z,997.06
2017-02-04T09:17:28.251Z,997.03
2017-02-04T09:18:39.665Z,997
2017-02-04T09:19:51.082Z,996.98
2017-02-04T09:21:02.546Z,997.03
2017-02-04T09:22:13.964Z,996.98
2017-02-04T09:23:25.377Z,996.96
2017-02-04T09:24:36.791Z,996.99
2017-02-04T09:25:48.412Z,997.02
2017-02-04T09:26:59.873Z,997.07
2017-02-04T09:28:11.288Z,997.09
2017-02-04T09:29:22.701Z,997.11
2017-02-04T09:30:34.323Z,997.05
2017-02-04T09:31:45.934Z,997.03
2017-02-04T09:32:57.396Z,997.01
2017-02-04T09:34:08.819Z,997.02
2017-02-04T09:35:20.240Z,997.06
2017-02-04T09:36:31.851Z,997.04
2017-02-04T09:37:43.270Z,997.07
2017-02-04T09:38:54.728Z,997.07
2017-02-04T09:40:06.146Z,997.1
2017-02-04T09:41:17.565Z,997.11
2017-02-04T09:42:28.981Z,997.14
2017-02-04T09:43:40.393Z,997.11
2017-02-04T09:44:51.859Z,997.13
2017-02-04T09:46:03.263Z,997.13
2017-02-04T09:47:14.682Z,997.13
2017-02-04T09:48:26.094Z,997.13
2017-02-04T09:49:37.712Z,997.1
2017-02-04T09:50:49.177Z,997.13
2017-02-04T09:52:00.603Z,997.12
2017-02-04T09:53:12.016Z,997.12
2017-02-04T09:54:23.432Z,997.09
2017-02-04T09:55:34.846Z,997.07
2017-02-04T09:56:46.306Z,997.04
2017-02-04T09:57:57.725Z,997.03
2017-02-04T09:59:09.144Z,997.06
2017-02-04T10:00:20.561Z,997.07
2017-02-04T10:01:31.975Z,997.05
2017-02-04T10:02:43.445Z,997.03
2017-02-04T10:03:54.857Z,997.06
2017-02-04T10:05:06.474Z,997.03
2017-02-04T10:06:18.098Z,997.02
2017-02-04T10:07:29.718Z,997.01
2017-02-04T10:08:41.178Z,996.94
2017-02-04T10:09:52.800Z,996.9
2017-02-04T10:11:04.213Z,996.89
2017-02-04T10:12:15.624Z,996.86
2017-02-04T10:13:27.049Z,996.85
2017-02-04T10:14:38.516Z,996.79
2017-02-04T10:15:50.133Z,996.76
2017-02-04T10:17:01.556Z,996.79
2017-02-04T10:18:13.171Z,996.81
2017-02-04T10:19:24.798Z,996.77
2017-02-04T10:20:36.279Z,996.76
2017-02-04T10:21:47.899Z,996.69
2017-02-04T10:22:59.322Z,996.67
2017-02-04T10:24:10.737Z,996.63
2017-02-04T10:25:22.165Z,996.65
2017-02-04T10:26:33.631Z,996.64
2017-02-04T10:27:45.051Z,996.58
2017-02-04T10:28:56.671Z,996.56
2017-02-04T10:30:08.093Z,996.56
2017-02-04T10:31:19.512Z,996.51
2017-02-04T10:32:30.979Z,996.48
2017-02-04T10:33:42.389Z,996.48
2017-02-04T10:34:53.801Z,996.5
2017-02-04T10:36:05.416Z,996.47
2017-02-04T10:37:17.034Z,996.5
2017-02-04T10:38:28.512Z,996.53
2017-02-04T10:39:39.932Z,996.5
2017-02-04T10:40:51.335Z,996.49
2017-02-04T10:42:02.965Z,996.47
2017-02-04T10:43:14.375Z,996.42
2017-02-04T10:44:25.847Z,996.38
2017-02-04T10:45:37.271Z,996.35
2017-02-04T10:46:48.692Z,996.28
2017-02-04T10:48:00.110Z,996.25
2017-02-04T10:49:11.529Z,996.15
2017-02-04T10:50:22.999Z,996.13
2017-02-04T10:51:34.418Z,996.07
2017-02-04T10:52:45.856Z,996.11
2017-02-04T10:53:57.262Z,996.07
2017-02-04T10:55:08.675Z,996.05
2017-02-04T10:56:20.134Z,996.06
2017-02-04T10:57:31.542Z,996.07
2017-02-04T10:58:42.968Z,996.03
2017-02-04T10:59:54.380Z,995.99
2017-02-04T11:01:05.795Z,995.98
2017-02-04T11:02:17.267Z,995.98
2017-02-04T11:03:28.882Z,995.96
2017-02-04T11:04:40.297Z,995.93
2017-02-04T11:05:51.709Z,995.88
2017-02-04T11:07:03.527Z,995.9
2017-02-04T11:08:14.989Z,995.85
2017-02-04T11:09:26.400Z,995.82
2017-02-04T11:10:37.818Z,995.83
2017-02-04T11:11:49.431Z,995.88
2017-02-04T11:13:00.843Z,995.81
2017-02-04T11:14:12.305Z,995.79
2017-02-04T11:15:23.718Z,995.77
2017-02-04T11:16:35.334Z,995.78
2017-02-04T11:17:46.745Z,995.76
2017-02-04T11:18:58.155Z,995.72
2017-02-04T11:20:09.654Z,995.72
2017-02-04T11:21:21.060Z,995.72
2017-02-04T11:22:32.467Z,995.77
2017-02-04T11:23:43.877Z,995.81
2017-02-04T11:24:55.291Z,995.83
2017-02-04T11:26:06.749Z,995.8
2017-02-04T11:27:18.166Z,995.79
2017-02-04T11:28:29.787Z,995.74
2017-02-04T11:29:41.199Z,995.71
2017-02-04T11:30:53.009Z,995.69
2017-02-04T11:32:04.468Z,995.73
2017-02-04T11:33:15.881Z,995.78
2017-02-04T11:34:27.289Z,995.73
2017-02-04T11:35:38.709Z,995.71
2017-02-04T11:36:50.126Z,995.72
2017-02-04T11:38:01.585Z,995.75
2017-02-04T11:39:13.194Z,995.79
2017-02-04T11:40:24.603Z,995.8
2017-02-04T11:41:36.018Z,995.85
2017-02-04T11:42:47.431Z,995.82
2017-02-04T11:43:58.885Z,995.8
2017-02-04T11:45:10.298Z,995.79
2017-02-04T11:46:21.714Z,995.77
2017-02-04T11:47:33.123Z,995.79
2017-02-04T11:48:44.531Z,995.78
2017-02-04T11:49:55.992Z,995.72
2017-02-04T11:51:07.403Z,995.74
2017-02-04T11:52:19.016Z,995.68
2017-02-04T11:53:30.632Z,995.67
2017-02-04T11:54:42.038Z,995.69
2017-02-04T11:55:53.497Z,995.67
2017-02-04T11:57:04.911Z,995.63
2017-02-04T11:58:16.313Z,995.68
2017-02-04T11:59:27.726Z,995.65
2017-02-04T12:00:39.135Z,995.59
2017-02-04T12:01:50.593Z,995.63
2017-02-04T12:03:02.207Z,995.62
2017-02-04T12:04:13.815Z,995.65
2017-02-04T12:05:25.233Z,995.7
2017-02-04T12:06:37.046Z,995.63
2017-02-04T12:07:48.499Z,995.68
2017-02-04T12:08:59.911Z,995.7
2017-02-04T12:10:11.518Z,995.72
2017-02-04T12:11:23.131Z,995.69
2017-02-04T12:12:34.548Z,995.75
2017-02-04T12:13:46.411Z,995.75
2017-02-04T12:14:57.823Z,995.76
2017-02-04T12:16:09.234Z,995.75
2017-02-04T12:17:20.643Z,995.79
2017-02-04T12:18:32.257Z,995.74
2017-02-04T12:19:43.721Z,995.8
2017-02-04T12:20:55.133Z,995.8
2017-02-04T12:22:06.747Z,995.82
2017-02-04T12:23:18.162Z,995.83
2017-02-04T12:24:29.564Z,995.81
2017-02-04T12:25:41.028Z,995.76
2017-02-04T12:26:52.445Z,995.79
2017-02-04T12:28:04.064Z,995.79
2017-02-04T12:29:15.480Z,995.82
2017-02-04T12:30:27.098Z,995.78
2017-02-04T12:31:38.557Z,995.78
2017-02-04T12:32:49.961Z,995.77
2017-02-04T12:34:01.377Z,995.7
2017-02-04T12:35:12.793Z,995.72
2017-02-04T12:36:24.209Z,995.74
2017-02-04T12:37:35.668Z,995.73
2017-02-04T12:38:47.081Z,995.73
2017-02-04T12:39:58.692Z,995.73
2017-02-04T12:41:10.107Z,995.72
2017-02-04T12:42:21.521Z,995.69
2017-02-04T12:43:32.987Z,995.67
2017-02-04T12:44:44.396Z,995.66
2017-02-04T12:45:55.793Z,995.68
2017-02-04T12:47:07.213Z,995.65
2017-02-04T12:48:18.820Z,995.61
2017-02-04T12:49:30.308Z,995.58
2017-02-04T12:50:41.923Z,995.63
2017-02-04T12:51:53.338Z,995.62
2017-02-04T12:53:04.953Z,995.61
2017-02-04T12:54:16.564Z,995.64
2017-02-04T12:55:28.222Z,995.59
2017-02-04T12:56:39.822Z,995.56
2017-02-04T12:57:51.240Z,995.59
2017-02-04T12:59:02.645Z,995.59
2017-02-04T13:00:14.054Z,995.61
2017-02-04T13:01:25.506Z,995.57
2017-02-04T13:02:36.918Z,995.56
2017-02-04T13:03:48.326Z,995.55
2017-02-04T13:04:59.735Z,995.57
2017-02-04T13:06:11.145Z,995.52
2017-02-04T13:07:22.618Z,995.53
2017-02-04T13:08:34.027Z,995.57
2017-02-04T13:09:45.834Z,995.54
2017-02-04T13:10:57.238Z,995.55
2017-02-04T13:12:08.639Z,995.52
2017-02-04T13:13:20.325Z,995.49
2017-02-04T13:14:31.735Z,995.46
2017-02-04T13:15:43.148Z,995.38
2017-02-04T13:16:54.561Z,995.39
2017-02-04T13:18:06.170Z,995.4
2017-02-04T13:19:17.629Z,995.36
2017-02-04T13:20:29.238Z,995.35
2017-02-04T13:21:40.845Z,995.38
2017-02-04T13:22:52.257Z,995.38
2017-02-04T13:24:03.667Z,995.37
2017-02-04T13:25:15.128Z,995.38
2017-02-04T13:26:26.539Z,995.43
2017-02-04T13:27:37.945Z,995.38
2017-02-04T13:28:49.548Z,995.4
2017-02-04T13:30:00.957Z,995.37
2017-02-04T13:31:12.424Z,995.39
2017-02-04T13:32:24.041Z,995.38
2017-02-04T13:33:35.644Z,995.35
2017-02-04T13:34:47.252Z,995.39
2017-02-04T13:35:58.669Z,995.37
2017-02-04T13:37:10.132Z,995.35
2017-02-04T13:38:21.540Z,995.39
2017-02-04T13:39:32.948Z,995.34
2017-02-04T13:40:44.350Z,995.38
2017-02-04T13:41:55.768Z,995.4
2017-02-04T13:43:07.225Z,995.42
2017-02-04T13:44:18.633Z,995.36
2017-02-04T13:45:30.049Z,995.38
2017-02-04T13:46:41.456Z,995.42
2017-02-04T13:47:52.859Z,995.41
2017-02-04T13:49:04.321Z,995.45
2017-02-04T13:50:15.737Z,995.47
2017-02-04T13:51:27.146Z,995.52
2017-02-04T13:52:38.578Z,995.54
2017-02-04T13:53:49.989Z,995.53
2017-02-04T13:55:01.454Z,995.52
2017-02-04T13:56:12.863Z,995.58
2017-02-04T13:57:24.273Z,995.62
2017-02-04T13:58:35.877Z,995.6
2017-02-04T13:59:47.695Z,995.62
2017-02-04T14:00:59.156Z,995.67
2017-02-04T14:02:10.576Z,995.67
2017-02-04T14:03:21.988Z,995.62
2017-02-04T14:04:33.400Z,995.65
2017-02-04T14:05:44.810Z,995.66
2017-02-04T14:06:56.268Z,995.6
2017-02-04T14:08:07.671Z,995.63
2017-02-04T14:09:19.089Z,995.67
2017-02-04T14:10:30.701Z,995.64
2017-02-04T14:11:42.310Z,995.65
2017-02-04T14:12:53.768Z,995.68
2017-02-04T14:14:05.168Z,995.71
2017-02-04T14:15:16.588Z,995.7
2017-02-04T14:16:27.996Z,995.71
2017-02-04T14:17:39.399Z,995.68
2017-02-04T14:18:50.860Z,995.7
2017-02-04T14:20:02.480Z,995.66
2017-02-04T14:21:13.887Z,995.67
2017-02-04T14:22:25.296Z,995.69
2017-02-04T14:23:36.702Z,995.72
2017-02-04T14:24:48.155Z,995.74
2017-02-04T14:25:59.578Z,995.76
2017-02-04T14:27:11.184Z,995.71
2017-02-04T14:28:22.588Z,995.68
2017-02-04T14:29:34.008Z,995.7
2017-02-04T14:30:45.464Z,995.69
2017-02-04T14:31:57.068Z,995.68
2017-02-04T14:33:08.481Z,995.66
2017-02-04T14:34:19.880Z,995.62
2017-02-04T14:35:31.294Z,995.64
2017-02-04T14:36:42.755Z,995.6
2017-02-04T14:37:54.161Z,995.6
2017-02-04T14:39:05.569Z,995.55
2017-02-04T14:40:16.979Z,995.55
2017-02-04T14:41:28.384Z,995.55
2017-02-04T14:42:40.244Z,995.52
2017-02-04T14:43:51.659Z,995.52
2017-02-04T14:45:03.074Z,995.52
2017-02-04T14:46:14.483Z,995.54
2017-02-04T14:47:25.892Z,995.51
2017-02-04T14:48:37.351Z,995.48
2017-02-04T14:49:48.759Z,995.47
2017-02-04T14:51:00.170Z,995.45
2017-02-04T14:52:11.587Z,995.46
2017-02-04T14:53:22.994Z,995.47
2017-02-04T14:54:34.664Z,995.47